Time;durP1;ratioP1;P1;durP2;ratioP2;P2;SDS_P1;SDS_P2;PMS_P1;PMS_P2;Temp;Humidity;BMP_temperature;BMP_pressure;BME280_temperature;BME280_humidity;BME280_pressure;Samples;Min_cycle;Max_cycle;Signal;HPM_P1;HPM_P2
2022/08/06 00:02:23;;;;;;;10.20;4.05;;;;;;;14.06;100.00;101944.53;5046317;28;20120;-84
2022/08/06 00:04:56;;;;;;;10.30;3.65;;;;;;;14.02;100.00;101956.94;5039692;28;20609;-83
2022/08/06 00:07:24;;;;;;;10.15;4.15;;;;;;;14.03;100.00;101956.03;5043915;28;20749;-84
2022/08/06 00:09:56;;;;;;;9.35;4.18;;;;;;;13.91;100.00;101942.41;5044807;28;20049;-84
2022/08/06 00:12:31;;;;;;;;;;;;;;;14.09;100.00;101954.09;5048665;28;20056;-84
2022/08/06 00:15:04;;;;;;;8.68;3.88;;;;;;;13.89;100.00;101947.72;5056287;28;20278;-84
2022/08/06 00:17:38;;;;;;;10.35;4.13;;;;;;;13.84;100.00;101942.59;5045876;28;20053;-84
2022/08/06 00:20:08;;;;;;;11.90;4.97;;;;;;;13.84;100.00;101941.72;5047907;28;20049;-84
2022/08/06 00:22:36;;;;;;;10.70;4.65;;;;;;;13.71;100.00;101935.16;5048648;28;20040;-83
2022/08/06 00:25:03;;;;;;;10.82;5.25;;;;;;;13.35;100.00;101927.47;5047399;28;20498;-84
2022/08/06 00:27:30;;;;;;;11.30;5.20;;;;;;;13.45;100.00;101937.66;5047010;28;20605;-84
2022/08/06 00:30:06;;;;;;;10.82;4.82;;;;;;;13.50;100.00;101950.69;5050683;28;20543;-84
2022/08/06 00:32:40;;;;;;;10.25;5.35;;;;;;;13.34;100.00;101952.91;5041905;28;20049;-83
2022/08/06 00:35:07;;;;;;;10.90;6.05;;;;;;;13.13;100.00;101937.75;5042061;28;20057;-84
2022/08/06 00:37:33;;;;;;;11.57;5.78;;;;;;;13.13;100.00;101961.41;5046309;28;20041;-84
2022/08/06 00:40:21;;;;;;;12.82;5.65;;;;;;;13.01;100.00;101942.44;5049527;28;20052;-84
2022/08/06 00:42:50;;;;;;;11.40;5.68;;;;;;;13.08;100.00;101932.59;5045958;28;20050;-84
2022/08/06 00:45:20;;;;;;;12.00;5.65;;;;;;;13.04;100.00;101939.72;5043480;28;20099;-84
2022/08/06 00:47:51;;;;;;;13.27;6.47;;;;;;;12.92;100.00;101926.91;5049889;28;20049;-84
2022/08/06 00:50:32;;;;;;;13.57;7.15;;;;;;;13.06;100.00;101961.56;5046080;28;20454;-84
2022/08/06 00:53:01;;;;;;;12.40;5.90;;;;;;;12.95;100.00;101958.38;5042866;28;20125;-84
2022/08/06 00:55:28;;;;;;;12.35;6.15;;;;;;;12.91;100.00;101952.34;5040924;28;20231;-84
2022/08/06 00:58:01;;;;;;;11.07;5.50;;;;;;;13.01;100.00;101952.09;5044025;28;20502;-84
2022/08/06 01:00:29;;;;;;;11.93;6.47;;;;;;;12.77;100.00;101933.47;5048024;28;20501;-84
2022/08/06 01:03:04;;;;;;;12.52;6.20;;;;;;;12.84;100.00;101960.47;5043404;28;20380;-84
2022/08/06 01:05:31;;;;;;;12.70;5.68;;;;;;;12.62;100.00;101941.78;5043469;28;20062;-84
2022/08/06 01:08:18;;;;;;;11.77;5.97;;;;;;;12.68;100.00;101946.88;5044805;28;20053;-84
2022/08/06 01:10:45;;;;;;;11.98;6.50;;;;;;;12.49;100.00;101936.84;5048617;28;20049;-84
2022/08/06 01:13:15;;;;;;;14.05;6.53;;;;;;;12.59;100.00;101931.34;5046724;28;20045;-84
2022/08/06 01:16:05;;;;;;;10.75;5.57;;;;;;;12.65;100.00;101949.59;5041831;28;20106;-84
2022/08/06 01:18:46;;;;;;;14.38;7.60;;;;;;;12.67;100.00;101953.03;5047278;28;20479;-84
2022/08/06 01:21:52;;;;;;;13.27;7.70;;;;;;;12.63;100.00;101961.91;5047614;28;20047;-84
2022/08/06 01:25:09;;;;;;;14.63;8.32;;;;;;;12.53;100.00;101956.88;5040404;28;20084;-84
2022/08/06 01:27:52;;;;;;;15.30;9.07;;;;;;;12.58;100.00;101972.53;5041347;28;20095;-84
2022/08/06 01:30:27;;;;;;;21.65;9.82;;;;;;;12.38;100.00;101962.53;5042972;28;20106;-84
2022/08/06 01:33:15;;;;;;;17.33;10.60;;;;;;;12.46;100.00;101978.94;5034702;28;20050;-82
2022/08/06 01:35:54;;;;;;;18.48;9.63;;;;;;;12.48;100.00;101968.41;5040071;28;20053;-84
2022/08/06 01:38:42;;;;;;;15.50;8.27;;;;;;;12.68;100.00;101981.03;5037015;28;20116;-84
2022/08/06 01:41:39;;;;;;;15.50;8.60;;;;;;;12.46;100.00;101954.44;5035686;28;20045;-84
2022/08/06 01:44:34;;;;;;;20.30;9.13;;;;;;;12.59;100.00;101962.88;5043006;28;20045;-84
2022/08/06 01:47:06;;;;;;;15.23;8.68;;;;;;;12.64;100.00;101982.88;5038924;28;20050;-84
2022/08/06 01:49:45;;;;;;;13.98;8.63;;;;;;;12.61;100.00;101966.34;5029850;28;20049;-84
2022/08/06 01:52:50;;;;;;;14.63;8.93;;;;;;;12.59;100.00;101970.75;5040295;28;20418;-84
2022/08/06 01:55:29;;;;;;;14.23;8.32;;;;;;;12.40;100.00;101975.63;5036131;28;20050;-84
2022/08/06 01:58:20;;;;;;;13.75;7.47;;;;;;;12.33;100.00;101967.91;5032728;28;20581;-84
2022/08/06 02:00:59;;;;;;;18.35;8.85;;;;;;;12.38;100.00;101973.06;5050040;28;21091;-84
2022/08/06 02:03:44;;;;;;;15.93;8.15;;;;;;;12.33;100.00;101967.03;5044140;28;20081;-84
2022/08/06 02:06:34;;;;;;;13.27;7.28;;;;;;;12.49;100.00;101963.13;5042936;28;20133;-84
2022/08/06 02:09:07;;;;;;;14.55;8.23;;;;;;;12.64;100.00;101971.50;5042589;28;20454;-84
2022/08/06 02:12:18;;;;;;;14.38;8.10;;;;;;;12.56;100.00;101957.72;5034970;28;20054;-84
2022/08/06 02:15:00;;;;;;;12.63;6.82;;;;;;;12.70;100.00;101961.69;5041043;28;20510;-84
2022/08/06 02:17:30;;;;;;;11.93;6.70;;;;;;;12.48;100.00;101958.78;5050301;28;20448;-84
2022/08/06 02:20:22;;;;;;;15.10;7.32;;;;;;;12.48;100.00;101957.91;5049563;28;20427;-84
2022/08/06 02:23:06;;;;;;;15.68;7.70;;;;;;;12.56;100.00;101962.97;5048768;28;20144;-84
2022/08/06 02:25:37;;;;;;;11.90;6.55;;;;;;;12.61;100.00;101964.56;5036637;28;20069;-84
2022/08/06 02:28:05;;;;;;;12.80;6.88;;;;;;;12.46;100.00;101931.66;5044257;28;20053;-84
2022/08/06 02:30:38;;;;;;;13.88;5.88;;;;;;;12.59;100.00;101955.88;5045834;28;20099;-84
2022/08/06 02:33:08;;;;;;;;;;;;;;;12.66;100.00;101959.19;5046322;28;20068;-84
2022/08/06 02:35:45;;;;;;;12.00;6.32;;;;;;;12.54;100.00;101949.88;5048170;28;19925;-84
2022/08/06 02:38:25;;;;;;;13.13;6.57;;;;;;;12.43;100.00;101965.91;5046141;28;20136;-84
2022/08/06 02:41:15;;;;;;;13.90;7.30;;;;;;;12.23;100.00;101973.44;5050592;28;20052;-84
2022/08/06 02:43:50;;;;;;;18.00;8.80;;;;;;;12.09;100.00;101939.63;5049483;28;20423;-84
2022/08/06 02:46:25;;;;;;;13.85;7.22;;;;;;;11.89;100.00;101940.94;5053651;28;20057;-84
2022/08/06 02:48:59;;;;;;;15.88;7.88;;;;;;;11.95;100.00;101929.47;5052922;28;20049;-84
2022/08/06 02:51:36;;;;;;;18.20;9.23;;;;;;;12.25;100.00;101971.63;5053499;28;20084;-84
2022/08/06 02:54:32;;;;;;;14.63;8.15;;;;;;;12.05;100.00;101928.34;5053062;28;20063;-84
2022/08/06 02:57:20;;;;;;;14.13;7.18;;;;;;;12.29;100.00;101963.63;5042664;28;20534;-85
2022/08/06 02:59:53;;;;;;;13.45;7.60;;;;;;;12.10;100.00;101942.22;5051662;28;20061;-85
2022/08/06 03:02:25;;;;;;;16.20;8.82;;;;;;;12.34;100.00;101980.16;5054692;28;20055;-85
2022/08/06 03:04:55;;;;;;;14.93;8.88;;;;;;;12.42;100.00;101979.94;5044463;28;20045;-85
2022/08/06 03:07:28;;;;;;;15.93;9.00;;;;;;;12.48;100.00;101989.41;5052998;28;20167;-85
2022/08/06 03:09:58;;;;;;;15.98;8.55;;;;;;;12.57;100.00;101969.94;5046351;28;20053;-85
2022/08/06 03:12:26;;;;;;;14.00;7.30;;;;;;;12.43;100.00;101962.41;5052512;28;20075;-84
2022/08/06 03:14:59;;;;;;;12.20;6.68;;;;;;;12.42;100.00;101972.06;5049365;28;20056;-84
2022/08/06 03:17:37;;;;;;;13.30;6.72;;;;;;;12.71;100.00;101973.06;5046109;28;20152;-84
2022/08/06 03:20:06;;;;;;;12.68;6.53;;;;;;;12.31;100.00;101968.84;5032900;28;20049;-84
2022/08/06 03:22:43;;;;;;;14.30;6.75;;;;;;;12.22;100.00;101938.44;5040320;28;20041;-84
2022/08/06 03:25:12;;;;;;;12.13;6.90;;;;;;;12.36;100.00;101977.47;5043412;28;20111;-84
2022/08/06 03:27:41;;;;;;;15.18;8.20;;;;;;;11.87;100.00;101942.75;5047821;28;20056;-84
2022/08/06 03:30:16;;;;;;;20.10;8.45;;;;;;;11.84;100.00;101948.06;5052522;28;20045;-84
2022/08/06 03:33:00;;;;;;;16.17;6.93;;;;;;;12.10;100.00;101967.63;5050024;28;20041;-85
2022/08/06 03:35:48;;;;;;;14.02;8.10;;;;;;;12.27;100.00;101959.31;5052820;28;20537;-85
2022/08/06 03:38:18;;;;;;;16.83;9.75;;;;;;;12.20;100.00;101955.09;5053322;28;20053;-85
2022/08/06 03:40:47;;;;;;;15.48;8.75;;;;;;;12.02;100.00;101935.44;5052319;28;20060;-85
2022/08/06 03:43:15;;;;;;;17.73;9.98;;;;;;;12.23;100.00;101947.16;5052133;28;20053;-85
2022/08/06 03:46:01;;;;;;;20.05;11.10;;;;;;;11.95;100.00;101925.09;5044975;28;20045;-86
2022/08/06 03:48:33;;;;;;;14.80;7.78;;;;;;;12.14;100.00;101946.47;5051407;28;20399;-85
2022/08/06 03:51:09;;;;;;;13.35;8.05;;;;;;;12.20;100.00;101942.88;5045156;28;20055;-85
2022/08/06 03:53:39;;;;;;;15.48;8.40;;;;;;;12.28;100.00;101959.28;5046789;28;20136;-85
2022/08/06 03:56:16;;;;;;;14.73;8.57;;;;;;;12.24;100.00;101954.16;5050863;28;20053;-84
2022/08/06 03:58:51;;;;;;;16.08;8.68;;;;;;;12.22;100.00;101956.81;5051422;28;20487;-84
2022/08/06 04:01:27;;;;;;;13.98;8.05;;;;;;;12.19;100.00;101956.88;5052715;28;20048;-84
2022/08/06 04:03:57;;;;;;;14.80;8.60;;;;;;;12.10;100.00;101962.38;5051001;28;20497;-83
2022/08/06 04:06:25;;;;;;;15.70;8.43;;;;;;;12.11;100.00;101958.81;5053069;28;20049;-83
2022/08/06 04:08:54;;;;;;;14.23;8.00;;;;;;;11.96;100.00;101981.06;5051660;28;20053;-84
2022/08/06 04:11:22;;;;;;;14.05;8.80;;;;;;;11.69;100.00;101938.78;5048624;28;20115;-83
2022/08/06 04:14:10;;;;;;;17.55;8.40;;;;;;;11.76;100.00;101955.25;5048165;28;20048;-84
2022/08/06 04:16:38;;;;;;;17.35;9.40;;;;;;;11.76;100.00;101958.75;5052831;28;20491;-83
2022/08/06 04:19:09;;;;;;;15.20;8.93;;;;;;;11.79;100.00;101968.28;5048396;28;20634;-83
2022/08/06 04:21:41;;;;;;;15.50;8.90;;;;;;;11.54;100.00;101933.88;5051011;28;20347;-84
2022/08/06 04:24:28;;;;;;;14.88;7.85;;;;;;;11.72;100.00;101949.22;5049137;28;20052;-84
2022/08/06 04:26:59;;;;;;;14.55;8.13;;;;;;;12.08;100.00;101964.16;5048340;28;20045;-84
2022/08/06 04:29:33;;;;;;;17.95;9.82;;;;;;;11.97;100.00;101943.44;5052754;28;20045;-84
2022/08/06 04:32:22;;;;;;;15.10;9.00;;;;;;;12.12;100.00;101968.44;5051415;28;20419;-84
2022/08/06 04:34:58;;;;;;;15.48;7.38;;;;;;;12.15;100.00;101966.59;5043444;28;20083;-84
2022/08/06 04:37:46;;;;;;;16.77;8.73;;;;;;;12.00;100.00;101931.97;5051218;28;20467;-84
2022/08/06 04:40:19;;;;;;;14.63;8.23;;;;;;;12.21;100.00;101965.56;5050338;28;20064;-84
2022/08/06 04:43:02;;;;;;;15.77;10.02;;;;;;;12.35;100.00;101945.09;5052140;28;20041;-84
2022/08/06 04:45:29;;;;;;;15.45;8.68;;;;;;;12.34;100.00;101943.38;5050108;28;20056;-84
2022/08/06 04:48:16;;;;;;;15.15;8.63;;;;;;;12.55;100.00;101967.34;5051738;28;20045;-84
2022/08/06 04:50:47;;;;;;;13.38;8.73;;;;;;;12.63;100.00;101956.66;5050712;28;20076;-84
2022/08/06 04:53:15;;;;;;;15.80;8.52;;;;;;;12.79;100.00;101964.97;5050766;28;20148;-84
2022/08/06 04:56:03;;;;;;;14.85;8.77;;;;;;;12.78;100.00;101958.84;5043126;28;20068;-84
2022/08/06 04:58:30;;;;;;;14.40;7.32;;;;;;;12.86;100.00;101942.88;5050599;28;20060;-85
2022/08/06 05:00:59;;;;;;;12.90;8.02;;;;;;;12.94;100.00;101948.75;5052428;28;20055;-84
2022/08/06 05:03:37;;;;;;;16.80;8.13;;;;;;;13.01;100.00;101957.34;5039086;28;20461;-84
2022/08/06 05:06:42;;;;;;;16.58;8.48;;;;;;;13.24;100.00;101964.56;5045079;28;20059;-84
2022/08/06 05:09:24;;;;;;;15.00;9.63;;;;;;;13.01;100.00;101949.47;5039901;28;20617;-84
2022/08/06 05:12:26;;;;;;;15.75;10.02;;;;;;;13.38;100.00;101964.22;5051624;28;20083;-84
2022/08/06 05:15:02;;;;;;;14.18;8.32;;;;;;;13.36;100.00;101950.25;5049975;28;20049;-84
2022/08/06 05:17:44;;;;;;;13.52;7.93;;;;;;;13.50;100.00;101937.53;5043380;28;20051;-84
2022/08/06 05:20:21;;;;;;;13.63;7.40;;;;;;;13.37;100.00;101933.53;5041339;28;20704;-84
2022/08/06 05:22:59;;;;;;;14.18;7.50;;;;;;;13.63;100.00;101938.88;5049931;28;20124;-85
2022/08/06 05:25:36;;;;;;;12.25;7.78;;;;;;;13.50;100.00;101902.47;5049421;28;20131;-84
2022/08/06 05:28:06;;;;;;;15.90;7.68;;;;;;;13.95;100.00;101965.06;5050009;28;20076;-84
2022/08/06 05:30:51;;;;;;;13.88;8.45;;;;;;;14.05;100.00;101966.50;5049920;28;20053;-84
2022/08/06 05:33:38;;;;;;;15.88;8.48;;;;;;;14.13;100.00;101963.63;5050100;28;20080;-84
2022/08/06 05:36:10;;;;;;;12.68;6.65;;;;;;;13.88;100.00;101911.75;5046843;28;20053;-84
2022/08/06 05:38:45;;;;;;;12.27;6.30;;;;;;;14.34;100.00;101960.28;5050007;28;20059;-84
2022/08/06 05:41:28;;;;;;;13.07;6.90;;;;;;;14.39;100.00;101960.13;5052017;28;20045;-85
2022/08/06 05:43:59;;;;;;;12.88;7.22;;;;;;;14.52;100.00;101961.44;5051466;28;20136;-84
2022/08/06 05:47:00;;;;;;;10.88;6.07;;;;;;;14.31;100.00;101935.81;5049390;28;20041;-84
2022/08/06 05:49:41;;;;;;;12.15;6.25;;;;;;;14.29;100.00;101959.59;5049657;28;20051;-84
2022/08/06 05:52:31;;;;;;;13.00;7.15;;;;;;;14.01;100.00;101935.94;5041390;28;20400;-84
2022/08/06 05:55:04;;;;;;;11.68;6.72;;;;;;;14.42;100.00;101962.66;5048951;28;20045;-84
2022/08/06 05:57:42;;;;;;;13.30;6.45;;;;;;;14.15;100.00;101940.75;5047660;28;20145;-84
2022/08/06 06:00:21;;;;;;;13.00;7.15;;;;;;;14.18;100.00;101945.88;5041188;28;20046;-84
2022/08/06 06:03:12;;;;;;;12.32;7.20;;;;;;;14.12;100.00;101948.75;5047049;28;20041;-85
2022/08/06 06:05:56;;;;;;;11.25;6.15;;;;;;;14.27;100.00;101950.88;5047882;28;20131;-84
2022/08/06 06:08:43;;;;;;;13.48;7.32;;;;;;;14.08;100.00;101921.66;5042508;28;20049;-84
2022/08/06 06:11:26;;;;;;;12.50;6.32;;;;;;;14.12;100.00;101944.31;5039970;28;20103;-84
2022/08/06 06:14:35;;;;;;;11.57;6.22;;;;;;;14.19;100.00;101930.03;5041841;28;20045;-84
2022/08/06 06:17:32;;;;;;;11.23;5.57;;;;;;;14.09;100.00;101917.22;5059721;28;20137;-84
2022/08/06 06:20:32;;;;;;;9.75;5.45;;;;;;;14.54;100.00;101959.59;5047959;28;20784;-84
2022/08/06 06:23:40;;;;;;;13.35;6.32;;;;;;;14.68;100.00;101956.50;5048943;28;20053;-84
2022/08/06 06:26:11;;;;;;;10.20;5.18;;;;;;;14.74;100.00;101964.19;5046318;28;20056;-84
2022/08/06 06:29:08;;;;;;;9.65;4.82;;;;;;;14.82;100.00;101950.75;5047661;28;20750;-85
2022/08/06 06:32:15;;;;;;;10.52;5.55;;;;;;;14.98;100.00;101964.25;5050603;28;20053;-84
2022/08/06 06:35:32;;;;;;;11.13;5.50;;;;;;;14.88;100.00;101965.50;5042445;28;20831;-84
2022/08/06 06:38:32;;;;;;;11.75;6.30;;;;;;;15.07;100.00;101963.91;5049506;28;20529;-84
2022/08/06 06:41:27;;;;;;;12.30;6.07;;;;;;;14.90;100.00;101930.22;5047335;28;20057;-85
2022/08/06 06:44:17;;;;;;;13.98;5.85;;;;;;;15.05;100.00;101960.47;5047315;28;20402;-84
2022/08/06 06:47:12;;;;;;;11.23;5.90;;;;;;;15.19;100.00;101959.91;5047606;28;20805;-85
2022/08/06 06:50:11;;;;;;;12.32;5.25;;;;;;;15.36;100.00;101948.75;5046920;28;20052;-84
2022/08/06 06:52:46;;;;;;;11.35;5.80;;;;;;;15.22;100.00;101932.59;5022392;28;20048;-84
2022/08/06 06:55:32;;;;;;;17.10;6.75;;;;;;;15.02;100.00;101921.00;5042782;28;20049;-85
2022/08/06 06:58:42;;;;;;;12.52;6.18;;;;;;;15.24;100.00;101976.44;5049636;28;20052;-84
2022/08/06 07:01:15;;;;;;;10.48;5.32;;;;;;;15.08;100.00;101941.88;5046711;28;20052;-84
2022/08/06 07:03:56;;;;;;;11.02;5.70;;;;;;;14.99;100.00;101953.59;5045672;28;20048;-86
2022/08/06 07:06:26;;;;;;;11.27;5.50;;;;;;;15.11;100.00;101967.28;5049395;28;20475;-86
2022/08/06 07:08:59;;;;;;;11.75;5.95;;;;;;;15.05;100.00;101957.81;5047671;28;20052;-86
2022/08/06 07:11:43;;;;;;;;;;;;;;;15.14;100.00;101978.59;5046199;28;20056;-85
2022/08/06 07:14:32;;;;;;;11.43;6.10;;;;;;;15.12;100.00;101977.78;5048575;28;19931;-87
2022/08/06 07:17:01;;;;;;;9.93;5.30;;;;;;;15.29;100.00;101978.94;5046503;28;20049;-87
2022/08/06 07:19:50;;;;;;;11.23;6.20;;;;;;;14.94;100.00;101925.69;5049137;28;20402;-87
2022/08/06 07:22:22;;;;;;;12.35;5.93;;;;;;;15.13;100.00;101949.63;5047183;28;20061;-86
2022/08/06 07:24:58;;;;;;;11.65;5.45;;;;;;;15.21;100.00;101957.22;5046237;28;20080;-87
2022/08/06 07:27:30;;;;;;;9.52;4.40;;;;;;;15.25;100.00;101966.78;5045544;28;20053;-87
2022/08/06 07:30:13;;;;;;;9.82;4.65;;;;;;;15.54;100.00;101984.97;5043535;28;20041;-86
2022/08/06 07:32:42;;;;;;;11.55;5.25;;;;;;;15.33;100.00;101978.75;5046949;28;20384;-87
2022/08/06 07:35:19;;;;;;;10.35;4.68;;;;;;;15.46;100.00;101976.50;5047218;28;20068;-88
2022/08/06 07:38:00;;;;;;;11.90;4.65;;;;;;;15.57;100.00;101999.84;5045053;28;20045;-87
2022/08/06 07:40:32;;;;;;;9.95;4.25;;;;;;;15.10;100.00;101968.19;5046372;28;20099;-87
2022/08/06 07:43:06;;;;;;;13.13;5.30;;;;;;;15.39;100.00;101993.50;5041690;28;20124;-87
2022/08/06 07:45:52;;;;;;;11.45;5.13;;;;;;;15.43;100.00;102007.44;5045649;28;20139;-85
2022/08/06 07:48:47;;;;;;;10.90;4.55;;;;;;;15.34;100.00;101991.03;5047487;28;20049;-86
2022/08/06 07:51:23;;;;;;;8.52;3.67;;;;;;;15.22;100.00;101951.91;5037916;28;20060;-86
2022/08/06 07:54:02;;;;;;;12.32;3.83;;;;;;;15.55;100.00;101989.34;5043710;28;20396;-86
2022/08/06 07:56:38;;;;;;;12.68;4.70;;;;;;;15.64;100.00;102005.75;5043500;28;20597;-86
2022/08/06 07:59:26;;;;;;;12.50;4.53;;;;;;;15.43;100.00;101992.44;5047953;28;20079;-86
2022/08/06 08:01:56;;;;;;;11.02;4.47;;;;;;;15.60;100.00;101996.22;5039884;28;20045;-86
2022/08/06 08:07:18;;;;;;;9.07;4.13;;;;;;;15.34;100.00;101987.53;5045577;28;20140;-87
2022/08/06 08:09:46;;;;;;;10.13;4.68;;;;;;;15.56;100.00;101999.00;5038580;28;20049;-86
2022/08/06 08:12:29;;;;;;;9.63;4.07;;;;;;;15.68;100.00;101968.59;5043410;28;20076;-86
2022/08/06 08:15:08;;;;;;;;;;;;;;;16.00;100.00;102010.53;5044448;28;20479;-86
2022/08/06 08:17:48;;;;;;;11.13;4.63;;;;;;;16.17;100.00;102010.72;5043206;28;20560;-85
2022/08/06 08:20:26;;;;;;;10.40;3.80;;;;;;;15.93;100.00;101975.56;5041121;28;20060;-86
2022/08/06 08:23:04;;;;;;;9.77;4.00;;;;;;;15.90;100.00;101973.94;5043658;28;20400;-85
2022/08/06 08:25:32;;;;;;;8.98;3.30;;;;;;;15.36;100.00;101910.00;5041723;28;20479;-85
2022/08/06 08:28:08;;;;;;;10.38;3.60;;;;;;;16.12;100.00;102002.97;5035907;28;20474;-86
2022/08/06 08:30:40;;;;;;;8.43;3.17;;;;;;;16.24;100.00;101979.63;5044766;28;20067;-86
2022/08/06 08:33:08;;;;;;;9.10;3.15;;;;;;;16.10;100.00;101975.75;5035064;28;20053;-86
2022/08/06 08:35:45;;;;;;;8.20;3.58;;;;;;;16.46;100.00;102000.72;5039081;28;20080;-86
2022/08/06 08:38:32;;;;;;;9.00;3.10;;;;;;;16.18;100.00;101970.13;5032920;28;20057;-86
2022/08/06 08:41:17;;;;;;;7.82;2.78;;;;;;;16.03;100.00;101921.47;5045505;28;20490;-85
2022/08/06 08:43:59;;;;;;;8.20;3.00;;;;;;;16.16;100.00;101942.94;5035862;28;20045;-85
2022/08/06 08:46:43;;;;;;;6.45;2.30;;;;;;;16.36;100.00;101934.19;5031904;28;20049;-85
2022/08/06 08:49:47;;;;;;;9.35;2.85;;;;;;;16.48;100.00;101996.22;5052728;28;20053;-85
2022/08/06 08:52:20;;;;;;;7.20;2.50;;;;;;;16.76;100.00;101982.66;5028431;28;20402;-85
2022/08/06 08:54:51;;;;;;;7.65;3.08;;;;;;;16.79;100.00;101984.34;5043785;28;20052;-85
2022/08/06 08:57:20;;;;;;;7.00;2.78;;;;;;;16.60;100.00;101963.13;5041892;28;20045;-85
2022/08/06 09:00:08;;;;;;;8.32;2.88;;;;;;;16.53;100.00;101954.59;5030511;28;20046;-86
2022/08/06 09:02:41;;;;;;;7.55;2.90;;;;;;;16.60;100.00;101919.00;5031620;28;20042;-85
2022/08/06 09:05:16;;;;;;;10.00;3.50;;;;;;;16.53;100.00;101951.94;5033162;28;20766;-85
2022/08/06 09:07:44;;;;;;;9.32;3.25;;;;;;;16.34;100.00;101917.50;5041679;28;20092;-85
2022/08/06 09:10:26;;;;;;;7.60;2.90;;;;;;;16.93;100.00;101962.56;5035828;28;20045;-83
2022/08/06 09:12:53;;;;;;;8.73;3.25;;;;;;;16.97;100.00;101975.59;5040372;28;20148;-86
2022/08/06 09:15:22;;;;;;;8.38;2.92;;;;;;;16.87;100.00;101946.06;5045051;28;20680;-86
2022/08/06 09:17:51;;;;;;;10.15;3.50;;;;;;;16.66;100.00;101931.97;5037872;28;20061;-85
2022/08/06 09:20:39;;;;;;;10.43;3.05;;;;;;;16.98;100.00;101950.00;5044277;28;20049;-86
2022/08/06 09:23:15;;;;;;;7.60;2.67;;;;;;;17.33;100.00;101972.19;5043532;28;20102;-86
2022/08/06 09:25:51;;;;;;;8.27;2.85;;;;;;;17.54;100.00;101975.63;5031912;28;20052;-86
2022/08/06 09:28:38;;;;;;;7.95;2.67;;;;;;;17.60;100.00;101972.72;5035312;28;20533;-86
2022/08/06 09:31:09;;;;;;;8.45;2.83;;;;;;;17.72;100.00;101979.19;5041222;28;20075;-86
2022/08/06 09:34:06;;;;;;;7.50;2.75;;;;;;;17.95;100.00;101979.91;5035549;28;20041;-86
2022/08/06 09:36:54;;;;;;;8.93;2.50;;;;;;;17.68;100.00;101968.84;5031602;28;20046;-85
2022/08/06 09:39:39;;;;;;;9.55;2.88;;;;;;;17.52;100.00;101936.94;5041419;28;20055;-86
2022/08/06 09:42:41;;;;;;;6.80;2.35;;;;;;;17.71;100.00;101934.25;5050463;28;20484;-86
2022/08/06 09:45:11;;;;;;;7.75;2.83;;;;;;;17.90;100.00;101939.53;5045109;28;20067;-86
2022/08/06 09:48:04;;;;;;;6.70;2.30;;;;;;;18.16;100.00;101967.38;5043951;28;20091;-85
2022/08/06 09:50:41;;;;;;;6.75;2.53;;;;;;;18.21;100.00;101966.22;5042577;28;21195;-86
2022/08/06 09:53:11;;;;;;;5.88;1.95;;;;;;;18.26;100.00;101970.44;5044941;28;20092;-86
2022/08/06 09:55:41;;;;;;;7.30;2.05;;;;;;;17.65;100.00;101904.50;5041141;28;20137;-86
2022/08/06 09:58:09;;;;;;;5.15;1.80;;;;;;;18.22;100.00;101964.44;5045005;28;20077;-86
2022/08/06 10:00:37;;;;;;;5.20;1.83;;;;;;;18.18;100.00;101946.97;5049677;28;20418;-85
2022/08/06 10:03:07;;;;;;;6.78;2.03;;;;;;;18.21;100.00;101957.41;5047442;28;20140;-84
2022/08/06 10:06:16;;;;;;;6.25;2.00;;;;;;;18.21;100.00;101944.16;5048957;28;20049;-85
2022/08/06 10:08:43;;;;;;;6.47;2.10;;;;;;;18.07;100.00;101920.16;5044528;28;20483;-85
2022/08/06 10:11:35;;;;;;;5.75;2.28;;;;;;;18.18;100.00;101928.41;5039249;28;20139;-86
2022/08/06 10:14:44;;;;;;;8.15;2.72;;;;;;;18.28;100.00;101956.16;5037602;28;20042;-86
2022/08/06 10:17:16;;;;;;;3.97;1.52;;;;;;;18.42;100.00;101965.22;5051315;28;20049;-83
2022/08/06 10:19:45;;;;;;;6.40;1.90;;;;;;;18.51;100.00;101941.72;5043212;28;20064;-83
2022/08/06 10:22:19;;;;;;;6.03;2.03;;;;;;;18.73;100.00;101960.03;5043080;28;20057;-83
2022/08/06 10:24:54;;;;;;;5.53;1.75;;;;;;;18.77;100.00;101953.63;5040045;28;20251;-83
2022/08/06 10:27:28;;;;;;;6.07;2.05;;;;;;;18.82;100.00;101956.06;5038275;28;20095;-85
2022/08/06 10:30:06;;;;;;;9.85;2.40;;;;;;;18.62;100.00;101949.13;5037275;28;20060;-84
2022/08/06 10:33:12;;;;;;;5.32;1.90;;;;;;;18.56;100.00;101954.75;5041663;28;20059;-84
2022/08/06 10:35:54;;;;;;;5.47;1.88;;;;;;;18.72;100.00;101938.91;4988393;28;20057;-84
2022/08/06 10:38:25;;;;;;;7.30;2.00;;;;;;;18.65;100.00;101921.59;5003129;28;20050;-86
2022/08/06 10:41:05;;;;;;;3.42;1.30;;;;;;;19.06;100.00;101932.66;5031700;28;20049;-85
2022/08/06 10:43:53;;;;;;;4.65;1.58;;;;;;;19.12;100.00;101942.97;5048138;28;20083;-85
2022/08/06 10:46:21;;;;;;;6.25;1.70;;;;;;;18.87;100.00;101900.94;5047261;28;20046;-86
2022/08/06 10:48:53;;;;;;;6.38;1.77;;;;;;;19.26;100.00;101902.34;5046187;28;20053;-87
2022/08/06 10:51:41;;;;;;;5.63;1.50;;;;;;;19.33;100.00;101946.19;5047780;28;20041;-86
2022/08/06 10:54:25;;;;;;;4.43;1.73;;;;;;;19.11;100.00;101906.72;5041118;28;20064;-86
2022/08/06 10:56:54;;;;;;;5.85;1.70;;;;;;;19.16;100.00;101933.03;5042833;28;20099;-86
2022/08/06 10:59:21;;;;;;;3.88;1.50;;;;;;;18.96;100.00;101895.16;5049758;28;20056;-85
2022/08/06 11:02:09;;;;;;;4.10;1.30;;;;;;;19.31;100.00;101955.22;5050553;28;20048;-86
2022/08/06 11:04:46;;;;;;;7.10;1.70;;;;;;;19.14;100.00;101958.78;5045006;28;20037;-85
2022/08/06 11:07:28;;;;;;;4.63;1.70;;;;;;;19.40;100.00;101956.50;5039120;28;20045;-86
2022/08/06 11:10:34;;;;;;;4.45;1.70;;;;;;;19.38;100.00;101947.78;5039831;28;20052;-86
2022/08/06 11:13:47;;;;;;;4.95;1.83;;;;;;;19.13;100.00;101927.88;5037271;28;20053;-86
2022/08/06 11:16:27;;;;;;;4.65;1.48;;;;;;;20.10;100.00;101941.03;5023081;28;20065;-86
2022/08/06 11:19:13;;;;;;;3.78;1.30;;;;;;;19.95;100.00;101916.19;5051467;28;20099;-85
2022/08/06 11:21:41;;;;;;;4.95;1.85;;;;;;;19.88;100.00;101934.31;5038764;28;20048;-87
2022/08/06 11:24:28;;;;;;;5.53;1.50;;;;;;;19.90;100.00;101913.81;5049192;28;20045;-86
2022/08/06 11:26:58;;;;;;;4.07;1.48;;;;;;;19.81;100.00;101900.19;5044450;28;20132;-87
2022/08/06 11:30:12;;;;;;;4.95;1.50;;;;;;;19.99;100.00;101932.81;5051922;28;20629;-86
2022/08/06 11:32:51;;;;;;;4.75;1.42;;;;;;;20.11;100.00;101921.47;5044179;28;20069;-85
2022/08/06 11:35:33;;;;;;;4.43;1.67;;;;;;;20.70;100.00;101915.31;5041284;28;20489;-86
2022/08/06 11:38:50;;;;;;;5.55;1.75;;;;;;;20.59;100.00;101914.16;5033915;28;20456;-85
2022/08/06 11:41:24;;;;;;;4.70;1.40;;;;;;;20.69;100.00;101916.28;5044919;28;20049;-85
2022/08/06 11:44:15;;;;;;;4.25;1.30;;;;;;;21.08;98.96;101915.56;5044342;28;20049;-85
2022/08/06 11:46:45;;;;;;;3.38;1.10;;;;;;;20.97;92.50;101889.63;5050136;28;20052;-85
2022/08/06 11:49:24;;;;;;;3.42;1.10;;;;;;;20.86;92.88;101914.28;5050621;28;20052;-85
2022/08/06 11:51:53;;;;;;;2.53;0.98;;;;;;;21.15;90.84;101903.56;5045951;28;20038;-85
2022/08/06 11:54:38;;;;;;;4.68;1.05;;;;;;;20.90;93.57;101908.75;5042607;28;20103;-85
2022/08/06 11:57:11;;;;;;;2.92;1.13;;;;;;;20.81;93.61;101919.03;5050354;28;20052;-85
2022/08/06 11:59:57;;;;;;;4.00;1.40;;;;;;;20.73;91.01;101915.97;5038834;28;20048;-85
2022/08/06 12:02:42;;;;;;;2.92;1.00;;;;;;;20.64;90.18;101912.06;5047182;28;20776;-85
2022/08/06 12:05:13;;;;;;;3.50;1.08;;;;;;;20.60;86.52;101907.03;5048594;28;20504;-86
2022/08/06 12:07:55;;;;;;;3.15;1.10;;;;;;;20.28;89.97;101897.38;5041540;28;20049;-86
2022/08/06 12:10:22;;;;;;;3.13;1.10;;;;;;;20.18;99.93;101906.84;5064697;28;20526;-85
2022/08/06 12:12:55;;;;;;;2.80;1.10;;;;;;;20.19;97.98;101892.63;5049623;28;20498;-84
2022/08/06 12:15:26;;;;;;;4.15;1.50;;;;;;;20.21;100.00;101903.16;5045540;28;20133;-85